createdAt,value
2022-09-07T00:01:07.471Z,19.13
2022-09-07T00:03:36.034Z,17.38
2022-09-07T00:06:11.349Z,17.15
2022-09-07T00:08:43.700Z,18.38
2022-09-07T00:11:17.971Z,17.45
2022-09-07T00:13:49.363Z,16.67
2022-09-07T00:16:25.762Z,15.63
2022-09-07T00:18:56.195Z,18.35
2022-09-07T00:21:24.737Z,16.92
2022-09-07T00:23:54.216Z,15.52
2022-09-07T00:26:29.663Z,15.07
2022-09-07T00:29:00.826Z,15.32
2022-09-07T00:31:30.831Z,15.93
2022-09-07T00:34:01.203Z,15.07
2022-09-07T00:36:29.770Z,14.57
2022-09-07T00:38:58.399Z,17.58
2022-09-07T00:41:26.097Z,15.82
2022-09-07T00:43:57.980Z,16.15
2022-09-07T00:46:29.924Z,15.70
2022-09-07T00:49:19.901Z,14.80
2022-09-07T00:51:54.147Z,14.77
2022-09-07T00:54:39.970Z,14.55
2022-09-07T00:57:07.882Z,14.02
2022-09-07T00:59:45.204Z,12.82
2022-09-07T01:02:17.264Z,13.43
2022-09-07T01:04:50.802Z,12.70
2022-09-07T01:07:19.197Z,12.88
2022-09-07T01:09:47.587Z,12.38
2022-09-07T01:12:15.233Z,12.43
2022-09-07T01:14:50.699Z,15.07
2022-09-07T01:18:16.362Z,12.70
2022-09-07T01:21:08.279Z,12.85
2022-09-07T01:24:19.259Z,11.82
2022-09-07T01:27:44.186Z,11.93
2022-09-07T01:30:16.977Z,13.48
2022-09-07T01:33:09.742Z,12.43
2022-09-07T01:36:12.710Z,14.57
2022-09-07T01:38:53.166Z,12.82
2022-09-07T01:41:38.854Z,14.32
2022-09-07T01:44:24.978Z,13.07
2022-09-07T01:47:35.960Z,11.90
2022-09-07T01:50:16.645Z,12.30
2022-09-07T01:53:06.328Z,11.75
2022-09-07T01:55:47.932Z,12.38
2022-09-07T01:58:23.273Z,12.00
2022-09-07T02:01:00.267Z,13.07
2022-09-07T02:03:42.195Z,12.70
2022-09-07T02:06:24.442Z,11.98
2022-09-07T02:09:06.477Z,12.35
2022-09-07T02:11:39.441Z,11.32
2022-09-07T02:14:37.626Z,12.57
2022-09-07T02:17:21.583Z,13.45
2022-09-07T02:20:04.909Z,12.10
2022-09-07T02:22:39.125Z,12.35
2022-09-07T02:25:11.091Z,12.65
2022-09-07T02:27:53.028Z,14.55
2022-09-07T02:30:20.606Z,14.48
2022-09-07T02:32:49.066Z,12.23
2022-09-07T02:35:17.066Z,13.48
2022-09-07T02:37:45.735Z,13.23
2022-09-07T02:40:14.796Z,12.30
2022-09-07T02:42:45.386Z,12.35
2022-09-07T02:45:15.601Z,13.82
2022-09-07T02:48:28.371Z,13.65
2022-09-07T02:51:02.437Z,12.57
2022-09-07T02:53:39.448Z,11.85
2022-09-07T02:56:18.777Z,11.77
2022-09-07T02:59:21.344Z,11.57
2022-09-07T03:02:11.809Z,11.57
2022-09-07T03:05:15.035Z,11.80
2022-09-07T03:07:59.463Z,13.68
2022-09-07T03:10:28.667Z,11.20
2022-09-07T03:12:56.296Z,12.45
2022-09-07T03:15:27.784Z,10.60
2022-09-07T03:17:55.338Z,10.23
2022-09-07T03:20:23.295Z,11.05
2022-09-07T03:22:52.809Z,10.68
2022-09-07T03:25:20.759Z,10.02
2022-09-07T03:27:48.323Z,10.95
2022-09-07T03:30:15.964Z,11.73
2022-09-07T03:32:43.510Z,10.07
2022-09-07T03:35:14.318Z,17.65
2022-09-07T03:37:42.067Z,12.13
2022-09-07T03:40:13.577Z,11.05
2022-09-07T03:42:41.934Z,10.00
2022-09-07T03:45:11.100Z,10.23
2022-09-07T03:47:39.142Z,10.52
2022-09-07T03:50:07.806Z,10.13
2022-09-07T03:52:36.262Z,10.40
2022-09-07T03:55:05.112Z,10.80
2022-09-07T03:57:32.761Z,12.48
2022-09-07T04:00:00.350Z,12.02
2022-09-07T04:02:27.972Z,10.55
2022-09-07T04:04:55.515Z,10.52
2022-09-07T04:07:23.148Z,10.23
2022-09-07T04:09:53.571Z,11.75
2022-09-07T04:12:21.046Z,10.77
2022-09-07T04:14:49.096Z,11.23
2022-09-07T04:17:16.619Z,10.45
2022-09-07T04:19:44.252Z,10.52
2022-09-07T04:22:11.732Z,10.35
2022-09-07T04:24:39.239Z,10.30
2022-09-07T04:27:06.809Z,10.82
2022-09-07T04:29:34.397Z,10.82
2022-09-07T04:32:02.643Z,10.27
2022-09-07T04:34:30.292Z,10.35
2022-09-07T04:36:57.846Z,10.77
2022-09-07T04:39:25.544Z,9.23
2022-09-07T04:41:53.098Z,11.68
2022-09-07T04:44:20.626Z,9.63
2022-09-07T04:46:48.093Z,10.48
2022-09-07T04:49:15.601Z,10.48
2022-09-07T04:51:44.292Z,11.00
2022-09-07T04:54:12.378Z,10.15
2022-09-07T04:56:39.960Z,10.30
2022-09-07T04:59:07.580Z,10.02
2022-09-07T05:01:35.329Z,10.80
2022-09-07T05:04:05.078Z,11.00
2022-09-07T05:06:33.278Z,11.18
2022-09-07T05:13:59.759Z,10.65
2022-09-07T05:16:28.718Z,13.93
2022-09-07T05:19:01.565Z,12.85
2022-09-07T05:21:34.499Z,14.98
2022-09-07T05:24:02.909Z,16.95
2022-09-07T05:26:33.869Z,12.80
2022-09-07T05:31:51.842Z,16.33
2022-09-07T05:34:35.011Z,11.88
2022-09-07T05:37:02.768Z,11.63
2022-09-07T05:39:30.867Z,11.10
2022-09-07T05:41:58.412Z,10.90
2022-09-07T05:47:09.763Z,12.18
2022-09-07T05:49:37.581Z,13.20
2022-09-07T05:52:05.339Z,13.93
2022-09-07T05:54:32.893Z,11.40
2022-09-07T05:57:00.442Z,11.23
2022-09-07T05:59:27.927Z,10.82
2022-09-07T06:01:55.643Z,9.45
2022-09-07T06:04:23.258Z,10.00
2022-09-07T06:07:20.151Z,10.23
2022-09-07T06:12:26.492Z,9.25
2022-09-07T06:14:54.007Z,9.90
2022-09-07T06:17:21.479Z,9.23
2022-09-07T06:19:48.994Z,9.45
2022-09-07T06:22:17.008Z,8.98
2022-09-07T06:24:44.534Z,10.73
2022-09-07T06:27:12.419Z,11.95
2022-09-07T06:29:40.035Z,10.65
2022-09-07T06:34:55.188Z,10.02
2022-09-07T06:37:22.864Z,12.65
2022-09-07T06:52:07.163Z,12.88
2022-09-07T06:57:21.941Z,12.70
2022-09-07T06:59:49.477Z,15.40
2022-09-07T07:04:44.236Z,17.85
2022-09-07T07:09:42.288Z,14.98
2022-09-07T07:12:10.963Z,13.05
2022-09-07T07:14:44.073Z,18.55
2022-09-07T07:17:13.415Z,12.63
2022-09-07T07:19:41.217Z,13.52
2022-09-07T07:22:45.549Z,15.70
2022-09-07T07:24:56.368Z,14.15
2022-09-07T07:27:24.144Z,14.20
2022-09-07T07:29:52.679Z,17.45
2022-09-07T07:32:20.236Z,12.05
2022-09-07T07:42:32.706Z,16.50
2022-09-07T07:47:51.642Z,20.05
2022-09-07T07:50:34.933Z,19.55
2022-09-07T07:55:51.402Z,19.40
2022-09-07T07:58:19.629Z,19.83
2022-09-07T08:00:54.746Z,15.57
2022-09-07T08:03:24.973Z,19.30
2022-09-07T08:05:52.933Z,19.48
2022-09-07T08:08:20.874Z,16.27
2022-09-07T08:10:48.473Z,19.63
2022-09-07T08:13:17.137Z,11.77
2022-09-07T08:15:45.287Z,19.33
2022-09-07T08:18:14.969Z,14.20
2022-09-07T08:20:43.085Z,15.40
2022-09-07T08:23:11.703Z,14.32
2022-09-07T08:25:39.471Z,11.50
2022-09-07T08:28:07.138Z,16.55
2022-09-07T08:30:35.058Z,18.05
2022-09-07T08:33:02.790Z,12.15
2022-09-07T08:35:30.304Z,12.73
2022-09-07T08:37:57.809Z,12.80
2022-09-07T08:40:25.272Z,11.88
2022-09-07T08:43:28.880Z,11.38
2022-09-07T08:46:24.641Z,11.63
2022-09-07T08:48:53.178Z,12.20
2022-09-07T08:51:36.278Z,10.13
2022-09-07T08:54:05.537Z,15.13
2022-09-07T08:57:20.608Z,12.07
2022-09-07T08:59:48.600Z,9.10
2022-09-07T09:02:38.347Z,9.10
2022-09-07T09:06:11.570Z,13.93
2022-09-07T09:08:28.667Z,8.85
2022-09-07T09:11:12.073Z,8.93
2022-09-07T09:14:02.729Z,9.48
2022-09-07T09:16:35.491Z,8.45
2022-09-07T09:19:55.510Z,8.70
2022-09-07T09:22:28.380Z,8.10
2022-09-07T09:25:20.363Z,13.38
2022-09-07T09:27:49.952Z,8.65
2022-09-07T09:30:22.135Z,7.90
2022-09-07T09:32:52.901Z,8.73
2022-09-07T09:35:32.632Z,8.05
2022-09-07T09:38:03.614Z,8.40
2022-09-07T09:40:35.244Z,8.00
2022-09-07T09:43:20.657Z,8.30
2022-09-07T09:48:48.977Z,8.45
2022-09-07T09:54:30.532Z,7.80
2022-09-07T09:56:58.048Z,7.75
2022-09-07T10:05:50.598Z,7.68
2022-09-07T10:08:23.964Z,7.65
2022-09-07T10:11:04.028Z,8.10
2022-09-07T10:13:53.124Z,7.72
2022-09-07T10:16:41.443Z,7.97
2022-09-07T10:19:36.654Z,7.97
2022-09-07T10:22:22.950Z,8.90
2022-09-07T10:24:51.055Z,16.50
2022-09-07T10:27:40.655Z,9.65
2022-09-07T10:30:16.767Z,10.38
2022-09-07T10:33:14.347Z,7.38
2022-09-07T10:35:58.869Z,7.57
2022-09-07T10:38:34.837Z,7.68
2022-09-07T10:41:09.742Z,8.15
2022-09-07T10:43:50.212Z,7.63
2022-09-07T10:46:56.963Z,7.65
2022-09-07T10:52:49.533Z,7.95
2022-09-07T10:55:28.830Z,7.43
2022-09-07T10:59:01.330Z,8.85
2022-09-07T11:01:42.927Z,7.97
2022-09-07T11:04:44.469Z,6.60
2022-09-07T11:07:50.562Z,6.60
2022-09-07T11:10:33.278Z,6.43
2022-09-07T11:13:05.662Z,6.57
2022-09-07T11:15:42.907Z,6.28
2022-09-07T11:18:35.323Z,6.50
2022-09-07T11:21:10.142Z,5.07
2022-09-07T11:23:45.088Z,5.07
2022-09-07T11:26:47.786Z,5.00
2022-09-07T11:29:36.520Z,5.20
2022-09-07T11:32:15.151Z,4.88
2022-09-07T11:34:52.152Z,4.55
2022-09-07T11:37:35.799Z,3.90
2022-09-07T11:40:31.337Z,7.32
2022-09-07T11:43:16.489Z,4.88
2022-09-07T11:45:59.823Z,4.50
2022-09-07T11:48:43.931Z,4.32
2022-09-07T11:51:39.795Z,4.10
2022-09-07T11:54:53.967Z,4.55
2022-09-07T11:57:54.892Z,4.80
2022-09-07T12:00:55.418Z,4.25
2022-09-07T12:03:44.646Z,4.50
2022-09-07T12:06:35.828Z,3.45
2022-09-07T12:09:48.156Z,3.78
2022-09-07T12:12:24.255Z,4.45
2022-09-07T12:15:15.729Z,5.03
2022-09-07T12:17:54.953Z,4.45
2022-09-07T12:20:45.891Z,3.60
2022-09-07T12:23:16.121Z,4.15
2022-09-07T12:25:47.546Z,4.20
2022-09-07T12:28:37.729Z,4.65
2022-09-07T12:31:12.376Z,4.90
2022-09-07T12:33:41.035Z,4.90
2022-09-07T12:36:26.607Z,5.07
2022-09-07T12:39:25.173Z,5.85
2022-09-07T12:45:29.969Z,6.03
2022-09-07T12:48:04.978Z,5.63
2022-09-07T12:50:56.672Z,5.80
2022-09-07T12:53:42.323Z,5.88
2022-09-07T13:00:27.198Z,5.50
2022-09-07T13:08:33.409Z,7.18
2022-09-07T13:11:19.242Z,7.30
2022-09-07T13:14:05.299Z,7.75
2022-09-07T13:19:51.450Z,7.90
2022-09-07T13:22:31.119Z,8.00
2022-09-07T13:25:27.198Z,8.38
2022-09-07T13:28:13.941Z,10.15
2022-09-07T13:33:51.739Z,7.80
2022-09-07T13:36:47.515Z,8.20
2022-09-07T13:39:21.684Z,8.37
2022-09-07T13:41:56.604Z,10.45
2022-09-07T13:44:33.520Z,8.07
2022-09-07T13:47:31.358Z,8.30
2022-09-07T13:50:26.453Z,7.82
2022-09-07T13:53:37.641Z,8.40
2022-09-07T13:56:40.247Z,8.52
2022-09-07T13:59:21.559Z,8.50
2022-09-07T14:01:50.797Z,8.35
2022-09-07T14:04:41.806Z,7.85
2022-09-07T14:07:20.320Z,8.25
2022-09-07T14:09:51.321Z,9.57
2022-09-07T14:12:21.870Z,8.07
2022-09-07T14:15:47.837Z,8.20
2022-09-07T14:18:22.357Z,8.38
2022-09-07T14:20:53.051Z,8.82
2022-09-07T14:23:30.852Z,8.27
2022-09-07T14:26:19.191Z,9.07
2022-09-07T14:28:53.938Z,8.57
2022-09-07T14:31:24.737Z,8.70
2022-09-07T14:33:56.938Z,9.00
2022-09-07T14:36:48.494Z,8.88
2022-09-07T14:39:20.987Z,8.40
2022-09-07T14:41:49.591Z,8.65
2022-09-07T14:44:34.239Z,8.50
2022-09-07T14:47:29.118Z,9.25
2022-09-07T14:50:05.186Z,8.35
2022-09-07T14:53:33.165Z,9.05
2022-09-07T14:55:41.957Z,8.68
2022-09-07T14:58:15.583Z,9.23
2022-09-07T15:03:40.885Z,8.88
2022-09-07T15:08:57.797Z,8.80
2022-09-07T15:11:33.368Z,8.75
2022-09-07T15:14:17.391Z,8.93
2022-09-07T15:19:50.384Z,8.68
2022-09-07T15:22:19.160Z,9.40
2022-09-07T15:24:48.067Z,9.98
2022-09-07T15:27:28.734Z,8.98
2022-09-07T15:29:56.269Z,8.98
2022-09-07T15:34:51.045Z,11.70
2022-09-07T15:40:22.521Z,9.43
2022-09-07T15:43:19.601Z,10.25
2022-09-07T15:45:37.520Z,9.85
2022-09-07T15:50:32.535Z,9.10
2022-09-07T15:53:00.882Z,9.68
2022-09-07T15:55:28.630Z,10.48
